Time;durP1;ratioP1;P1;durP2;ratioP2;P2;SDS_P1;SDS_P2;PMS_P1;PMS_P2;Temp;Humidity;BMP_temperature;BMP_pressure;BME280_temperature;BME280_humidity;BME280_pressure;Samples;Min_cycle;Max_cycle;Signal;HPM_P1;HPM_P2
2021/03/26 00:00:14;;;;;;;26.80;14.30;;;;;;;;;;1036904;28;20248;-41
2021/03/26 00:00:49;;;;;;;18.92;11.10;;;;;;;;;;1032646;28;20419;-41
2021/03/26 00:01:31;;;;;;;19.23;10.57;;;;;;;;;;1038543;28;20058;-41
2021/03/26 00:02:01;;;;;;;21.33;10.27;;;;;;;;;;1036870;28;20055;-40
2021/03/26 00:02:32;;;;;;;19.77;11.13;;;;;;;;;;1045064;28;20005;-40
2021/03/26 00:03:04;;;;;;;19.07;11.40;;;;;;;;;;1040986;28;20009;-40
2021/03/26 00:03:35;;;;;;;18.20;11.20;;;;;;;;;;1036528;28;20006;-41
2021/03/26 00:04:06;;;;;;;19.85;10.90;;;;;;;;;;1036834;28;20439;-41
2021/03/26 00:04:40;;;;;;;18.05;11.20;;;;;;;;;;1040795;28;20020;-41
2021/03/26 00:05:13;;;;;;;18.30;11.27;;;;;;;;;;1036505;28;20128;-41
2021/03/26 00:05:44;;;;;;;20.20;12.32;;;;;;;;;;1036099;28;20017;-41
2021/03/26 00:06:20;;;;;;;18.20;9.53;;;;;;;;;;1036605;28;20413;-40
2021/03/26 00:06:51;;;;;;;17.75;10.75;;;;;;;;;;1032425;28;20002;-41
2021/03/26 00:07:21;;;;;;;21.13;10.80;;;;;;;;;;1032750;28;20034;-40
2021/03/26 00:08:01;;;;;;;16.37;10.40;;;;;;;;;;1036902;28;20383;-41
2021/03/26 00:08:43;;;;;;;17.63;10.30;;;;;;;;;;1036787;28;20010;-41
2021/03/26 00:09:14;;;;;;;18.00;10.70;;;;;;;;;;1036921;28;20459;-40
2021/03/26 00:09:45;;;;;;;17.80;9.48;;;;;;;;;;1036666;28;20002;-40
2021/03/26 00:10:16;;;;;;;18.85;10.45;;;;;;;;;;1037740;28;20030;-40
2021/03/26 00:10:46;;;;;;;17.03;9.20;;;;;;;;;;1036750;28;20095;-40
2021/03/26 00:11:17;;;;;;;15.13;9.80;;;;;;;;;;1041028;28;20009;-40
2021/03/26 00:11:47;;;;;;;17.00;9.50;;;;;;;;;;1040630;28;20435;-40
2021/03/26 00:12:21;;;;;;;15.10;10.07;;;;;;;;;;1036451;28;20010;-41
2021/03/26 00:12:53;;;;;;;16.65;10.23;;;;;;;;;;1036231;28;20415;-40
2021/03/26 00:13:24;;;;;;;16.57;9.80;;;;;;;;;;1036464;28;20033;-40
2021/03/26 00:13:55;;;;;;;16.17;9.80;;;;;;;;;;1036251;28;20014;-40
2021/03/26 00:14:26;;;;;;;13.10;9.27;;;;;;;;;;1036277;28;20072;-40
2021/03/26 00:14:57;;;;;;;17.15;10.05;;;;;;;;;;1032415;28;20018;-40
2021/03/26 00:15:31;;;;;;;17.08;9.32;;;;;;;;;;1036274;28;20041;-39
2021/03/26 00:16:05;;;;;;;14.93;9.38;;;;;;;;;;1040216;28;20029;-40
2021/03/26 00:16:35;;;;;;;17.10;10.13;;;;;;;;;;1040656;28;20450;-38
2021/03/26 00:17:09;;;;;;;20.80;10.33;;;;;;;;;;1032036;28;20094;-40
2021/03/26 00:17:40;;;;;;;16.73;9.85;;;;;;;;;;1036135;28;20014;-40
2021/03/26 00:18:11;;;;;;;14.87;9.10;;;;;;;;;;1040606;28;20042;-39
2021/03/26 00:18:41;;;;;;;17.93;10.10;;;;;;;;;;1040974;28;20410;-38
2021/03/26 00:19:11;;;;;;;19.10;10.13;;;;;;;;;;1045368;28;20016;-38
2021/03/26 00:19:41;;;;;;;19.43;9.37;;;;;;;;;;1044635;28;20436;-37
2021/03/26 00:20:12;;;;;;;15.77;10.03;;;;;;;;;;1044907;28;20425;-37
2021/03/26 00:20:42;;;;;;;16.00;9.83;;;;;;;;;;1044451;28;20013;-38
2021/03/26 00:21:13;;;;;;;17.10;9.87;;;;;;;;;;1048982;28;20122;-38
2021/03/26 00:21:43;;;;;;;19.90;10.33;;;;;;;;;;1053367;28;20069;-38
2021/03/26 00:22:13;;;;;;;14.57;9.50;;;;;;;;;;1053219;28;20016;-38
2021/03/26 00:22:43;;;;;;;16.43;10.20;;;;;;;;;;1053241;28;20295;-38
2021/03/26 00:23:14;;;;;;;20.13;10.00;;;;;;;;;;1053491;28;20051;-37
2021/03/26 00:23:44;;;;;;;17.20;9.53;;;;;;;;;;1053477;28;20012;-37
2021/03/26 00:24:14;;;;;;;16.77;10.03;;;;;;;;;;1053481;28;20103;-37
2021/03/26 00:24:44;;;;;;;16.40;9.77;;;;;;;;;;1054176;28;20127;-37
2021/03/26 00:25:15;;;;;;;19.87;10.07;;;;;;;;;;1053772;28;20020;-37
2021/03/26 00:25:45;;;;;;;17.53;10.00;;;;;;;;;;1053575;28;20115;-38
2021/03/26 00:26:15;;;;;;;17.90;10.20;;;;;;;;;;1053949;28;20039;-37
2021/03/26 00:26:46;;;;;;;16.17;10.13;;;;;;;;;;1054258;28;20066;-37
2021/03/26 00:27:16;;;;;;;14.93;9.40;;;;;;;;;;1054217;28;20012;-37
2021/03/26 00:27:46;;;;;;;16.13;9.13;;;;;;;;;;1050651;28;20016;-38
2021/03/26 00:28:16;;;;;;;15.73;9.67;;;;;;;;;;1053391;28;20050;-37
2021/03/26 00:28:47;;;;;;;19.93;10.00;;;;;;;;;;1053315;28;20020;-37
2021/03/26 00:29:20;;;;;;;20.40;9.67;;;;;;;;;;1053228;28;20411;-33
2021/03/26 00:29:50;;;;;;;17.25;9.23;;;;;;;;;;1054099;28;20012;-33
2021/03/26 00:30:21;;;;;;;17.60;10.07;;;;;;;;;;1053703;28;20020;-32
2021/03/26 00:30:51;;;;;;;19.17;9.90;;;;;;;;;;1053711;28;20465;-33
2021/03/26 00:31:21;;;;;;;16.83;9.37;;;;;;;;;;1053214;28;20491;-42
2021/03/26 00:31:52;;;;;;;16.77;9.57;;;;;;;;;;1052361;28;20012;-43
2021/03/26 00:32:22;;;;;;;19.03;9.93;;;;;;;;;;1053303;28;20116;-47
2021/03/26 00:32:52;;;;;;;21.23;10.37;;;;;;;;;;1053118;28;20012;-45
2021/03/26 00:33:23;;;;;;;17.07;9.97;;;;;;;;;;1052823;28;20020;-45
2021/03/26 00:33:53;;;;;;;20.27;10.20;;;;;;;;;;1052486;28;20473;-46
2021/03/26 00:34:23;;;;;;;20.77;10.33;;;;;;;;;;1052758;28;20020;-45
2021/03/26 00:34:54;;;;;;;16.43;9.80;;;;;;;;;;1048542;28;20018;-45
2021/03/26 00:35:25;;;;;;;16.50;9.80;;;;;;;;;;1048494;28;20012;-45
2021/03/26 00:35:55;;;;;;;17.30;9.83;;;;;;;;;;1052347;28;20336;-47
2021/03/26 00:36:26;;;;;;;19.25;9.98;;;;;;;;;;1052331;28;20548;-49
2021/03/26 00:36:58;;;;;;;19.20;10.00;;;;;;;;;;1052691;28;20024;-46
2021/03/26 00:37:28;;;;;;;20.65;10.10;;;;;;;;;;1052898;28;20012;-48
2021/03/26 00:37:58;;;;;;;20.03;9.97;;;;;;;;;;1052735;28;20107;-47
2021/03/26 00:38:29;;;;;;;19.95;10.20;;;;;;;;;;1052225;28;20437;-49
2021/03/26 00:39:00;;;;;;;17.33;8.87;;;;;;;;;;1053013;28;20023;-46
2021/03/26 00:39:31;;;;;;;15.88;9.32;;;;;;;;;;1052778;28;20011;-47
2021/03/26 00:40:03;;;;;;;17.90;9.27;;;;;;;;;;1052963;28;20016;-48
2021/03/26 00:40:33;;;;;;;18.27;10.10;;;;;;;;;;1052586;28;20024;-45
2021/03/26 00:41:04;;;;;;;16.00;9.93;;;;;;;;;;1048371;28;20424;-45
2021/03/26 00:41:34;;;;;;;18.00;9.93;;;;;;;;;;1048540;28;20024;-47
2021/03/26 00:42:04;;;;;;;18.13;10.10;;;;;;;;;;1044128;28;20032;-47
2021/03/26 00:42:35;;;;;;;16.60;10.13;;;;;;;;;;1048234;28;20012;-47
2021/03/26 00:43:05;;;;;;;16.47;9.63;;;;;;;;;;1048451;28;20051;-46
2021/03/26 00:43:35;;;;;;;19.37;10.07;;;;;;;;;;1052324;28;20507;-46
2021/03/26 00:44:06;;;;;;;22.00;10.40;;;;;;;;;;1052487;28;20034;-46
2021/03/26 00:44:36;;;;;;;16.17;9.63;;;;;;;;;;1052525;28;20039;-47
2021/03/26 00:45:07;;;;;;;19.60;10.00;;;;;;;;;;1048141;28;20031;-46
2021/03/26 00:45:37;;;;;;;19.10;10.10;;;;;;;;;;1044126;28;20029;-46
2021/03/26 00:46:07;;;;;;;15.83;9.40;;;;;;;;;;1048373;28;20013;-47
2021/03/26 00:46:38;;;;;;;16.23;9.33;;;;;;;;;;1044183;28;20024;-46
2021/03/26 00:47:08;;;;;;;20.90;10.47;;;;;;;;;;1048266;28;20017;-46
2021/03/26 00:47:38;;;;;;;18.17;10.57;;;;;;;;;;1048332;28;20020;-49
2021/03/26 00:48:09;;;;;;;17.23;9.70;;;;;;;;;;1048048;28;20043;-46
2021/03/26 00:48:39;;;;;;;17.08;9.63;;;;;;;;;;1052378;28;20439;-47
2021/03/26 00:49:10;;;;;;;16.80;9.77;;;;;;;;;;1052785;28;20046;-48
2021/03/26 00:49:40;;;;;;;17.30;10.70;;;;;;;;;;1052434;28;20105;-48
2021/03/26 00:50:14;;;;;;;18.20;10.73;;;;;;;;;;1052414;28;20070;-46
2021/03/26 00:50:45;;;;;;;22.08;11.70;;;;;;;;;;1052584;28;20118;-45
2021/03/26 00:51:15;;;;;;;26.42;14.35;;;;;;;;;;1048275;28;20353;-48
2021/03/26 00:51:45;;;;;;;22.03;12.37;;;;;;;;;;1052349;28;20091;-46
2021/03/26 00:52:16;;;;;;;22.40;13.37;;;;;;;;;;1052451;28;20105;-45
2021/03/26 00:52:46;;;;;;;24.37;13.93;;;;;;;;;;1052573;28;20511;-45
2021/03/26 00:53:20;;;;;;;26.10;14.43;;;;;;;;;;1052777;28;20020;-45
2021/03/26 00:53:50;;;;;;;23.20;13.90;;;;;;;;;;1050373;28;19996;-47
2021/03/26 00:54:20;;;;;;;25.13;13.70;;;;;;;;;;1052723;28;20040;-46
2021/03/26 00:54:50;;;;;;;24.87;13.40;;;;;;;;;;1052674;28;20070;-48
2021/03/26 00:55:21;;;;;;;22.97;13.40;;;;;;;;;;1052519;28;20539;-48
2021/03/26 00:55:51;;;;;;;22.63;12.80;;;;;;;;;;1052437;28;20062;-45
2021/03/26 00:56:21;;;;;;;26.27;13.13;;;;;;;;;;1052594;28;20045;-45
2021/03/26 00:56:52;;;;;;;24.83;13.37;;;;;;;;;;1053139;28;20041;-50
2021/03/26 00:57:22;;;;;;;24.20;13.43;;;;;;;;;;1052937;28;20365;-47
2021/03/26 00:57:52;;;;;;;22.73;13.03;;;;;;;;;;1052661;28;20377;-47
2021/03/26 00:58:23;;;;;;;21.37;13.40;;;;;;;;;;1048377;28;20101;-46
2021/03/26 00:58:53;;;;;;;22.33;12.17;;;;;;;;;;1048574;28;20051;-47
2021/03/26 00:59:23;;;;;;;20.97;12.93;;;;;;;;;;1044200;28;20103;-46
2021/03/26 00:59:54;;;;;;;23.20;12.47;;;;;;;;;;1048565;28;20004;-49
2021/03/26 01:00:25;;;;;;;22.67;11.93;;;;;;;;;;1052649;28;20012;-46
2021/03/26 01:00:55;;;;;;;21.37;11.67;;;;;;;;;;1052611;28;20028;-45
2021/03/26 01:01:26;;;;;;;21.63;11.27;;;;;;;;;;1052795;28;20008;-47
2021/03/26 01:01:58;;;;;;;24.40;11.00;;;;;;;;;;1052488;28;20708;-47
2021/03/26 01:02:28;;;;;;;20.42;11.57;;;;;;;;;;1049842;28;20017;-45
2021/03/26 01:02:59;;;;;;;19.23;10.83;;;;;;;;;;1052679;28;20012;-47
2021/03/26 01:03:29;;;;;;;20.87;11.90;;;;;;;;;;1052691;28;20480;-49
2021/03/26 01:03:59;;;;;;;20.33;10.97;;;;;;;;;;1052632;28;20008;-47
2021/03/26 01:04:30;;;;;;;25.30;12.27;;;;;;;;;;1044085;28;20009;-46
2021/03/26 01:05:00;;;;;;;19.93;11.00;;;;;;;;;;1044172;28;20462;-47
2021/03/26 01:05:31;;;;;;;20.80;11.40;;;;;;;;;;1043956;28;20044;-47
2021/03/26 01:06:02;;;;;;;20.20;11.73;;;;;;;;;;1048152;28;20465;-46
2021/03/26 01:06:33;;;;;;;21.00;12.32;;;;;;;;;;1052883;28;20012;-48
2021/03/26 01:07:04;;;;;;;18.93;11.80;;;;;;;;;;1052837;28;20453;-47
2021/03/26 01:07:34;;;;;;;21.15;12.02;;;;;;;;;;1052722;28;20016;-46
2021/03/26 01:08:05;;;;;;;20.87;12.20;;;;;;;;;;1052806;28;20065;-47
2021/03/26 01:08:35;;;;;;;21.83;11.93;;;;;;;;;;1052985;28;20564;-51
2021/03/26 01:09:06;;;;;;;20.77;12.10;;;;;;;;;;1052674;28;20457;-49
2021/03/26 01:09:36;;;;;;;20.70;12.10;;;;;;;;;;1052921;28;20023;-47
2021/03/26 01:10:09;;;;;;;19.77;11.70;;;;;;;;;;1052373;28;20011;-48
2021/03/26 01:10:44;;;;;;;23.40;12.15;;;;;;;;;;1048748;28;20016;-47
2021/03/26 01:11:18;;;;;;;21.60;11.95;;;;;;;;;;1052600;28;20020;-45
2021/03/26 01:11:48;;;;;;;20.30;11.80;;;;;;;;;;1049835;28;20657;-46
2021/03/26 01:12:19;;;;;;;19.83;11.40;;;;;;;;;;1052597;28;20020;-46
2021/03/26 01:12:49;;;;;;;21.13;12.17;;;;;;;;;;1052826;28;20016;-46
2021/03/26 01:13:21;;;;;;;20.37;11.73;;;;;;;;;;1052664;28;20016;-47
2021/03/26 01:13:51;;;;;;;18.80;10.70;;;;;;;;;;1052741;28;20049;-46
2021/03/26 01:14:21;;;;;;;20.23;11.90;;;;;;;;;;1052796;28;20451;-45
2021/03/26 01:14:51;;;;;;;20.33;12.17;;;;;;;;;;1052946;28;20012;-47
2021/03/26 01:15:23;;;;;;;19.77;11.87;;;;;;;;;;1052729;28;20022;-46
2021/03/26 01:15:54;;;;;;;21.02;11.70;;;;;;;;;;1052654;28;20103;-47
2021/03/26 01:16:25;;;;;;;20.57;11.70;;;;;;;;;;1052834;28;20388;-45
2021/03/26 01:16:55;;;;;;;17.70;10.93;;;;;;;;;;1052491;28;20021;-47
2021/03/26 01:17:26;;;;;;;17.93;11.37;;;;;;;;;;1052545;28;20091;-45
2021/03/26 01:17:56;;;;;;;21.23;12.60;;;;;;;;;;1052495;28;20545;-45
2021/03/26 01:18:31;;;;;;;21.40;11.60;;;;;;;;;;1048613;28;20029;-47
2021/03/26 01:19:02;;;;;;;20.52;12.00;;;;;;;;;;1048214;28;20091;-48
2021/03/26 01:19:38;;;;;;;22.13;12.50;;;;;;;;;;1044213;28;20017;-47
2021/03/26 01:20:09;;;;;;;18.58;11.85;;;;;;;;;;1042763;28;20023;-47
2021/03/26 01:20:39;;;;;;;20.45;11.93;;;;;;;;;;1049107;28;20015;-47
2021/03/26 01:21:12;;;;;;;22.87;12.30;;;;;;;;;;1052682;28;20511;-47
2021/03/26 01:21:42;;;;;;;20.38;11.82;;;;;;;;;;1052680;28;20012;-49
2021/03/26 01:22:13;;;;;;;20.63;11.73;;;;;;;;;;1052846;28;20016;-47
2021/03/26 01:22:43;;;;;;;22.43;11.50;;;;;;;;;;1052349;28;20032;-50
2021/03/26 01:23:13;;;;;;;22.33;11.43;;;;;;;;;;1052615;28;20024;-47
2021/03/26 01:23:44;;;;;;;19.47;11.13;;;;;;;;;;1045230;28;20198;-47
2021/03/26 01:24:14;;;;;;;21.23;11.50;;;;;;;;;;1048231;28;20031;-48
2021/03/26 01:24:44;;;;;;;23.10;12.27;;;;;;;;;;1048339;28;20024;-47
2021/03/26 01:25:20;;;;;;;22.40;11.73;;;;;;;;;;1052578;28;20016;-47
2021/03/26 01:25:50;;;;;;;17.95;12.02;;;;;;;;;;1052764;28;20103;-46
2021/03/26 01:26:21;;;;;;;21.38;11.73;;;;;;;;;;1052787;28;20409;-46
2021/03/26 01:26:52;;;;;;;20.33;11.40;;;;;;;;;;1052539;28;20119;-46
2021/03/26 01:27:22;;;;;;;19.63;11.53;;;;;;;;;;1052490;28;20062;-49
2021/03/26 01:27:52;;;;;;;18.70;12.10;;;;;;;;;;1052317;28;20115;-46
2021/03/26 01:28:24;;;;;;;22.47;12.17;;;;;;;;;;1051697;28;20035;-50
2021/03/26 01:28:54;;;;;;;20.10;10.95;;;;;;;;;;1052623;28;20457;-50
2021/03/26 01:29:24;;;;;;;19.87;11.73;;;;;;;;;;1052447;28;20106;-47
2021/03/26 01:29:56;;;;;;;18.33;10.90;;;;;;;;;;1052451;28;20099;-49
2021/03/26 01:30:27;;;;;;;20.60;11.80;;;;;;;;;;1052522;28;20016;-48
2021/03/26 01:30:58;;;;;;;20.98;12.18;;;;;;;;;;1052195;28;20011;-47
2021/03/26 01:31:28;;;;;;;23.10;11.70;;;;;;;;;;1052690;28;20051;-46
2021/03/26 01:31:59;;;;;;;21.40;12.00;;;;;;;;;;1052942;28;20111;-46
2021/03/26 01:32:29;;;;;;;18.97;11.07;;;;;;;;;;1052813;28;20020;-47
2021/03/26 01:33:00;;;;;;;20.63;11.70;;;;;;;;;;1052615;28;20016;-48
2021/03/26 01:33:30;;;;;;;18.73;11.60;;;;;;;;;;1052677;28;20032;-50
2021/03/26 01:34:01;;;;;;;16.93;11.10;;;;;;;;;;1052678;28;20012;-48
2021/03/26 01:34:31;;;;;;;20.23;10.73;;;;;;;;;;1052708;28;20607;-46
2021/03/26 01:35:02;;;;;;;20.90;11.83;;;;;;;;;;1052597;28;20563;-46
2021/03/26 01:35:35;;;;;;;21.13;11.23;;;;;;;;;;1052728;28;20027;-46
2021/03/26 01:36:06;;;;;;;20.48;11.70;;;;;;;;;;1045702;28;20028;-48
2021/03/26 01:36:36;;;;;;;20.23;11.87;;;;;;;;;;1048130;28;20485;-48
2021/03/26 01:37:06;;;;;;;25.43;11.83;;;;;;;;;;1047985;28;20111;-46
2021/03/26 01:37:37;;;;;;;20.53;11.70;;;;;;;;;;1048181;28;20017;-49
2021/03/26 01:38:07;;;;;;;21.73;11.77;;;;;;;;;;1048847;28;20024;-49
2021/03/26 01:38:37;;;;;;;19.13;11.53;;;;;;;;;;1048051;28;20173;-46
2021/03/26 01:39:07;;;;;;;24.83;11.83;;;;;;;;;;1052302;28;20008;-49
2021/03/26 01:39:38;;;;;;;19.30;12.00;;;;;;;;;;1052316;28;20012;-47
2021/03/26 01:40:09;;;;;;;26.33;12.10;;;;;;;;;;1052235;28;20024;-49
2021/03/26 01:40:40;;;;;;;22.20;12.15;;;;;;;;;;1052615;28;20012;-47
2021/03/26 01:41:27;;;;;;;19.17;12.45;;;;;;;;;;1052660;28;20008;-46
2021/03/26 01:41:57;;;;;;;21.27;11.77;;;;;;;;;;1050597;28;20017;-46
2021/03/26 01:42:30;;;;;;;21.57;11.97;;;;;;;;;;1052666;28;20106;-47
2021/03/26 01:43:11;;;;;;;20.10;11.77;;;;;;;;;;1052595;28;20004;-47
2021/03/26 01:43:42;;;;;;;20.67;11.70;;;;;;;;;;1050152;28;20009;-46
2021/03/26 01:44:12;;;;;;;19.20;12.13;;;;;;;;;;1048158;28;20020;-48
2021/03/26 01:44:43;;;;;;;21.70;12.43;;;;;;;;;;1043997;28;20466;-49
2021/03/26 01:45:23;;;;;;;19.87;12.27;;;;;;;;;;1040011;28;20009;-47
2021/03/26 01:45:53;;;;;;;;;;;;;;;;;;1049997;28;20019;-48
2021/03/26 01:46:24;;;;;;;18.90;11.27;;;;;;;;;;1052401;28;20391;-47
2021/03/26 01:46:55;;;;;;;24.17;11.60;;;;;;;;;;1052708;28;20099;-46
2021/03/26 01:47:26;;;;;;;20.33;11.23;;;;;;;;;;1052563;28;20028;-46
2021/03/26 01:47:56;;;;;;;21.97;11.77;;;;;;;;;;1052471;28;20027;-46
2021/03/26 01:48:37;;;;;;;18.27;11.17;;;;;;;;;;1052159;28;20501;-46
2021/03/26 01:49:07;;;;;;;18.65;10.90;;;;;;;;;;1052267;28;20506;-48
2021/03/26 01:49:37;;;;;;;18.13;11.00;;;;;;;;;;1052546;28;20054;-46
2021/03/26 01:50:08;;;;;;;17.93;11.67;;;;;;;;;;1052736;28;20024;-49
2021/03/26 01:50:39;;;;;;;23.30;12.00;;;;;;;;;;1052450;28;20046;-48
2021/03/26 01:51:12;;;;;;;20.53;12.07;;;;;;;;;;1052322;28;20028;-45
2021/03/26 01:51:45;;;;;;;20.10;11.43;;;;;;;;;;1048106;28;20029;-46
2021/03/26 01:52:15;;;;;;;19.80;11.90;;;;;;;;;;1048185;28;20017;-46
2021/03/26 01:52:45;;;;;;;19.93;11.40;;;;;;;;;;1048757;28;20020;-47
2021/03/26 01:53:16;;;;;;;19.47;11.10;;;;;;;;;;1052393;28;20095;-46
2021/03/26 01:53:46;;;;;;;21.37;12.10;;;;;;;;;;1052169;28;20106;-45
2021/03/26 01:54:17;;;;;;;23.00;12.07;;;;;;;;;;1048192;28;20027;-46
2021/03/26 01:54:47;;;;;;;21.30;12.10;;;;;;;;;;1048101;28;20008;-46
2021/03/26 01:55:19;;;;;;;22.57;11.83;;;;;;;;;;1048381;28;20025;-46
2021/03/26 01:55:50;;;;;;;23.48;12.57;;;;;;;;;;1052104;28;20020;-45
2021/03/26 01:56:20;;;;;;;19.70;12.20;;;;;;;;;;1052888;28;20012;-45
2021/03/26 01:56:51;;;;;;;21.93;12.37;;;;;;;;;;1052204;28;20250;-44
2021/03/26 01:57:21;;;;;;;21.27;13.17;;;;;;;;;;1048253;28;20004;-45
2021/03/26 01:57:51;;;;;;;20.53;12.03;;;;;;;;;;1048128;28;20174;-44
2021/03/26 01:58:23;;;;;;;21.83;12.07;;;;;;;;;;1044053;28;20147;-45
2021/03/26 01:58:53;;;;;;;19.98;12.10;;;;;;;;;;1048049;28;20034;-45
2021/03/26 01:59:23;;;;;;;19.37;12.50;;;;;;;;;;1052373;28;20020;-45
2021/03/26 01:59:55;;;;;;;22.67;11.73;;;;;;;;;;1052536;28;20216;-45
2021/03/26 02:00:28;;;;;;;19.42;11.98;;;;;;;;;;1052528;28;20009;-44
2021/03/26 02:01:02;;;;;;;18.75;11.50;;;;;;;;;;1052532;28;20456;-44
2021/03/26 02:01:36;;;;;;;19.77;12.02;;;;;;;;;;1052337;28;20777;-46
2021/03/26 02:02:09;;;;;;;19.88;12.55;;;;;;;;;;1047998;28;20009;-44
2021/03/26 02:02:40;;;;;;;25.45;12.20;;;;;;;;;;1048237;28;20073;-44
2021/03/26 02:03:19;;;;;;;22.27;12.17;;;;;;;;;;1044840;28;20462;-45
2021/03/26 02:03:50;;;;;;;21.45;12.45;;;;;;;;;;1049430;28;20037;-45
2021/03/26 02:04:25;;;;;;;22.45;12.85;;;;;;;;;;1052299;28;20118;-45
2021/03/26 02:04:55;;;;;;;21.38;12.68;;;;;;;;;;1049707;28;20013;-45
2021/03/26 02:05:26;;;;;;;25.00;12.80;;;;;;;;;;1048070;28;20091;-46
2021/03/26 02:05:57;;;;;;;21.35;12.32;;;;;;;;;;1047972;28;20096;-49
2021/03/26 02:06:28;;;;;;;19.55;11.98;;;;;;;;;;1048323;28;20015;-46
2021/03/26 02:06:59;;;;;;;18.42;12.25;;;;;;;;;;1052276;28;20039;-44
2021/03/26 02:07:29;;;;;;;21.47;11.60;;;;;;;;;;1052524;28;20647;-45
2021/03/26 02:07:59;;;;;;;24.70;13.13;;;;;;;;;;1048000;28;20009;-45
2021/03/26 02:08:31;;;;;;;18.83;12.23;;;;;;;;;;1048131;28;20102;-45
2021/03/26 02:09:06;;;;;;;24.70;13.68;;;;;;;;;;1048188;28;20020;-45
2021/03/26 02:09:37;;;;;;;23.02;13.05;;;;;;;;;;1046495;28;20013;-46
2021/03/26 02:10:08;;;;;;;19.85;12.43;;;;;;;;;;1052145;28;20099;-45
2021/03/26 02:10:38;;;;;;;21.13;12.63;;;;;;;;;;1052261;28;20008;-45
2021/03/26 02:11:14;;;;;;;21.90;12.77;;;;;;;;;;1052302;28;20098;-44
2021/03/26 02:11:47;;;;;;;20.30;13.10;;;;;;;;;;1052240;28;20472;-45
2021/03/26 02:12:20;;;;;;;20.75;13.02;;;;;;;;;;1052250;28;20008;-46
2021/03/26 02:12:53;;;;;;;20.52;13.27;;;;;;;;;;1048098;28;20457;-46
2021/03/26 02:13:25;;;;;;;21.02;13.07;;;;;;;;;;1043671;28;20162;-45
2021/03/26 02:13:55;;;;;;;21.83;12.23;;;;;;;;;;1040735;28;20041;-45
2021/03/26 02:14:29;;;;;;;25.47;12.37;;;;;;;;;;1044577;28;20017;-45
2021/03/26 02:15:03;;;;;;;26.35;12.95;;;;;;;;;;1048818;28;20012;-45
2021/03/26 02:15:39;;;;;;;18.85;12.68;;;;;;;;;;1049456;28;20087;-45
2021/03/26 02:16:10;;;;;;;21.33;12.60;;;;;;;;;;1045682;28;20485;-45
2021/03/26 02:16:40;;;;;;;21.27;12.40;;;;;;;;;;1044066;28;20051;-45
2021/03/26 02:17:11;;;;;;;23.57;13.27;;;;;;;;;;1043797;28;20010;-45
2021/03/26 02:17:41;;;;;;;20.33;12.37;;;;;;;;;;1044106;28;20049;-47
2021/03/26 02:18:22;;;;;;;21.20;13.37;;;;;;;;;;1052229;28;20622;-45
2021/03/26 02:18:53;;;;;;;21.17;12.77;;;;;;;;;;1052765;28;20545;-48
2021/03/26 02:19:43;;;;;;;24.70;13.60;;;;;;;;;;1052863;28;20016;-46
2021/03/26 02:20:13;;;;;;;;;;;;;;;;;;1052854;28;20028;-45
2021/03/26 02:20:45;;;;;;;20.70;12.87;;;;;;;;;;1052726;28;20003;-47
2021/03/26 02:21:17;;;;;;;19.75;12.73;;;;;;;;;;1048148;28;20008;-45
2021/03/26 02:21:48;;;;;;;27.55;13.10;;;;;;;;;;1047992;28;20021;-46
2021/03/26 02:22:19;;;;;;;20.27;12.40;;;;;;;;;;1043926;28;20047;-45
2021/03/26 02:22:50;;;;;;;22.88;13.90;;;;;;;;;;1044346;28;20023;-46
2021/03/26 02:23:21;;;;;;;23.63;13.70;;;;;;;;;;1046128;28;20028;-45
2021/03/26 02:23:52;;;;;;;20.20;13.63;;;;;;;;;;1048142;28;20478;-45
2021/03/26 02:24:23;;;;;;;28.87;15.63;;;;;;;;;;1052186;28;20046;-47
2021/03/26 02:24:53;;;;;;;28.23;16.33;;;;;;;;;;1052190;28;20509;-45
2021/03/26 02:25:25;;;;;;;23.80;14.30;;;;;;;;;;1052533;28;20024;-45
2021/03/26 02:25:56;;;;;;;28.70;15.60;;;;;;;;;;1049686;28;20024;-46
2021/03/26 02:26:30;;;;;;;28.10;14.88;;;;;;;;;;1052476;28;20519;-51
2021/03/26 02:27:03;;;;;;;25.13;14.30;;;;;;;;;;1052566;28;20052;-45
2021/03/26 02:27:34;;;;;;;27.88;15.63;;;;;;;;;;1052566;28;20030;-45
2021/03/26 02:28:05;;;;;;;23.02;14.63;;;;;;;;;;1052479;28;20044;-45
2021/03/26 02:28:35;;;;;;;21.70;13.90;;;;;;;;;;1052561;28;20016;-45
2021/03/26 02:29:22;;;;;;;24.97;15.17;;;;;;;;;;1052499;28;20012;-45
2021/03/26 02:29:53;;;;;;;20.77;13.55;;;;;;;;;;1052623;28;20027;-45
2021/03/26 02:30:24;;;;;;;26.70;15.70;;;;;;;;;;1052672;28;20496;-45
2021/03/26 02:30:57;;;;;;;28.60;14.88;;;;;;;;;;1049737;28;20016;-45
2021/03/26 02:31:27;;;;;;;28.42;15.57;;;;;;;;;;1052166;28;20094;-45
2021/03/26 02:31:59;;;;;;;24.70;15.10;;;;;;;;;;1052409;28;20020;-44
2021/03/26 02:32:36;;;;;;;25.42;16.30;;;;;;;;;;1052588;28;20487;-44
2021/03/26 02:33:07;;;;;;;27.30;15.32;;;;;;;;;;1052155;28;20024;-45
2021/03/26 02:33:37;;;;;;;26.53;15.57;;;;;;;;;;1052126;28;20028;-45
2021/03/26 02:34:07;;;;;;;24.50;15.27;;;;;;;;;;1052196;28;20468;-45
2021/03/26 02:34:38;;;;;;;24.33;14.67;;;;;;;;;;1052409;28;20061;-45
2021/03/26 02:35:16;;;;;;;23.47;14.97;;;;;;;;;;1052627;28;20042;-45
2021/03/26 02:35:47;;;;;;;28.23;15.90;;;;;;;;;;1052548;28;20020;-45
2021/03/26 02:36:20;;;;;;;26.25;16.63;;;;;;;;;;1052461;28;20488;-45
2021/03/26 02:36:52;;;;;;;25.73;16.00;;;;;;;;;;1052499;28;20012;-45
2021/03/26 02:37:22;;;;;;;28.88;16.35;;;;;;;;;;1052295;28;20024;-45
2021/03/26 02:37:53;;;;;;;25.70;16.00;;;;;;;;;;1052118;28;20776;-46
2021/03/26 02:38:24;;;;;;;24.23;15.30;;;;;;;;;;1048121;28;20020;-47
2021/03/26 02:38:55;;;;;;;29.47;17.27;;;;;;;;;;1041469;28;20022;-46
2021/03/26 02:39:46;;;;;;;27.25;15.35;;;;;;;;;;1048018;28;20258;-45
2021/03/26 02:40:16;;;;;;;;;;;;;;;;;;1048884;28;20029;-45
2021/03/26 02:40:55;;;;;;;26.53;14.77;;;;;;;;;;1052252;28;19904;-46
2021/03/26 02:41:32;;;;;;;23.77;15.43;;;;;;;;;;1052358;28;20016;-45
2021/03/26 02:42:05;;;;;;;28.65;15.85;;;;;;;;;;1052324;28;20028;-45
2021/03/26 02:42:35;;;;;;;33.05;17.58;;;;;;;;;;1049474;28;20096;-46
2021/03/26 02:43:20;;;;;;;30.03;16.13;;;;;;;;;;1048149;28;20095;-47
2021/03/26 02:44:00;;;;;;;26.85;15.13;;;;;;;;;;1045904;28;20059;-45
2021/03/26 02:44:53;;;;;;;25.67;15.65;;;;;;;;;;1044018;28;20025;-45
2021/03/26 02:45:28;;;;;;;29.35;15.07;;;;;;;;;;1048030;28;20478;-45
2021/03/26 02:46:04;;;;;;;22.40;14.57;;;;;;;;;;1050002;28;20107;-45
2021/03/26 02:46:36;;;;;;;25.70;14.85;;;;;;;;;;1052569;28;20024;-45
2021/03/26 02:47:06;;;;;;;27.45;15.45;;;;;;;;;;1047914;28;20027;-45
2021/03/26 02:47:38;;;;;;;24.00;15.20;;;;;;;;;;1048126;28;20022;-45
2021/03/26 02:48:12;;;;;;;22.33;14.38;;;;;;;;;;1043849;28;20100;-47
2021/03/26 02:48:44;;;;;;;20.40;14.70;;;;;;;;;;1040213;28;20497;-45
2021/03/26 02:49:23;;;;;;;20.95;14.43;;;;;;;;;;1041261;28;20100;-45
2021/03/26 02:50:08;;;;;;;25.55;14.48;;;;;;;;;;1041507;28;20573;-45
2021/03/26 02:50:38;;;;;;;23.60;14.43;;;;;;;;;;1049358;28;20039;-48
2021/03/26 02:51:12;;;;;;;24.87;14.90;;;;;;;;;;1052085;28;20546;-48
2021/03/26 02:51:50;;;;;;;23.73;14.57;;;;;;;;;;1050491;28;20027;-48
2021/03/26 02:52:23;;;;;;;24.95;13.60;;;;;;;;;;1052093;28;20035;-47
2021/03/26 02:52:59;;;;;;;25.98;13.82;;;;;;;;;;1052185;28;20530;-45
2021/03/26 02:53:48;;;;;;;21.77;13.68;;;;;;;;;;1051827;28;20020;-47
2021/03/26 02:54:20;;;;;;;21.55;13.57;;;;;;;;;;1050390;28;20412;-47
2021/03/26 02:54:50;;;;;;;22.48;13.80;;;;;;;;;;1052643;28;20099;-49
2021/03/26 02:55:39;;;;;;;21.23;12.83;;;;;;;;;;1052960;28;20488;-47
2021/03/26 02:56:11;;;;;;;20.80;13.55;;;;;;;;;;1052207;28;20012;-46
2021/03/26 02:57:00;;;;;;;22.30;13.50;;;;;;;;;;1051600;28;20384;-46
2021/03/26 02:57:48;;;;;;;22.08;13.18;;;;;;;;;;1052183;28;20080;-48
2021/03/26 02:58:20;;;;;;;19.17;12.63;;;;;;;;;;1050801;28;20055;-45
2021/03/26 02:58:59;;;;;;;23.00;13.48;;;;;;;;;;1052889;28;20005;-46
2021/03/26 02:59:44;;;;;;;26.30;13.50;;;;;;;;;;1052796;28;20077;-47
2021/03/26 03:00:34;;;;;;;22.42;13.23;;;;;;;;;;1048640;28;20082;-46
2021/03/26 03:01:06;;;;;;;;;;;;;;;;;;1051793;28;20102;-48
2021/03/26 03:01:37;;;;;;;22.45;12.18;;;;;;;;;;1052871;28;19970;-46
2021/03/26 03:02:08;;;;;;;21.08;12.90;;;;;;;;;;1053160;28;20487;-45
2021/03/26 03:02:38;;;;;;;22.70;12.97;;;;;;;;;;1053179;28;20041;-45
2021/03/26 03:03:09;;;;;;;22.63;13.63;;;;;;;;;;1052808;28;20020;-46
2021/03/26 03:03:39;;;;;;;21.63;12.27;;;;;;;;;;1048444;28;20485;-46
2021/03/26 03:04:30;;;;;;;20.80;13.40;;;;;;;;;;1048766;28;20012;-47
2021/03/26 03:05:00;;;;;;;;;;;;;;;;;;1050056;28;20067;-46
2021/03/26 03:05:40;;;;;;;23.10;13.03;;;;;;;;;;1053006;28;19911;-48
2021/03/26 03:06:10;;;;;;;;;;;;;;;;;;1053375;28;20488;-45
2021/03/26 03:06:42;;;;;;;23.23;12.97;;;;;;;;;;1053006;28;19908;-45
2021/03/26 03:07:21;;;;;;;22.85;12.85;;;;;;;;;;1048815;28;20461;-45
2021/03/26 03:08:10;;;;;;;21.42;13.35;;;;;;;;;;1050153;28;20047;-48
2021/03/26 03:08:40;;;;;;;20.58;13.25;;;;;;;;;;1050885;28;20086;-47